sensor_id;sensor_type;location;lat;lon;timestamp;P1;durP1;ratioP1;P2;durP2;ratioP2
66830;SDS011;53739;44.224;22.528;2022-11-23T00:04:15;35.70;;;21.45;;
66830;SDS011;53739;44.224;22.528;2022-11-23T00:06:44;38.38;;;25.35;;
66830;SDS011;53739;44.224;22.528;2022-11-23T00:09:16;27.65;;;18.23;;
66830;SDS011;53739;44.224;22.528;2022-11-23T00:46:09;51.05;;;27.08;;
66830;SDS011;53739;44.224;22.528;2022-11-23T01:16:35;40.65;;;23.33;;
66830;SDS011;53739;44.224;22.528;2022-11-23T01:29:40;41.22;;;25.33;;
66830;SDS011;53739;44.224;22.528;2022-11-23T01:35:30;38.58;;;25.25;;
66830;SDS011;53739;44.224;22.528;2022-11-23T03:25:15;15.98;;;9.35;;
66830;SDS011;53739;44.224;22.528;2022-11-23T03:53:19;24.08;;;12.07;;
66830;SDS011;53739;44.224;22.528;2022-11-23T04:07:19;27.20;;;14.93;;
66830;SDS011;53739;44.224;22.528;2022-11-23T04:17:00;24.50;;;12.85;;
66830;SDS011;53739;44.224;22.528;2022-11-23T04:19:47;36.45;;;20.00;;
66830;SDS011;53739;44.224;22.528;2022-11-23T04:51:03;28.73;;;18.80;;
66830;SDS011;53739;44.224;22.528;2022-11-23T04:53:29;20.20;;;14.45;;
66830;SDS011;53739;44.224;22.528;2022-11-23T04:56:00;23.02;;;13.80;;
66830;SDS011;53739;44.224;22.528;2022-11-23T04:58:26;29.88;;;16.70;;
66830;SDS011;53739;44.224;22.528;2022-11-23T05:00:52;35.55;;;21.33;;
66830;SDS011;53739;44.224;22.528;2022-11-23T05:03:18;29.45;;;20.10;;
66830;SDS011;53739;44.224;22.528;2022-11-23T05:05:46;21.95;;;15.77;;
66830;SDS011;53739;44.224;22.528;2022-11-23T05:08:15;29.15;;;18.00;;
66830;SDS011;53739;44.224;22.528;2022-11-23T05:11:09;27.17;;;19.20;;
66830;SDS011;53739;44.224;22.528;2022-11-23T05:33:37;29.00;;;15.68;;
66830;SDS011;53739;44.224;22.528;2022-11-23T05:36:35;32.83;;;18.20;;
66830;SDS011;53739;44.224;22.528;2022-11-23T05:39:01;40.22;;;22.92;;
66830;SDS011;53739;44.224;22.528;2022-11-23T05:41:26;47.20;;;25.95;;
66830;SDS011;53739;44.224;22.528;2022-11-23T05:43:52;53.83;;;27.58;;
66830;SDS011;53739;44.224;22.528;2022-11-23T05:54:07;39.05;;;21.65;;
66830;SDS011;53739;44.224;22.528;2022-11-23T06:03:26;57.67;;;33.00;;
66830;SDS011;53739;44.224;22.528;2022-11-23T06:05:58;37.83;;;24.25;;
66830;SDS011;53739;44.224;22.528;2022-11-23T06:08:23;33.08;;;22.35;;
66830;SDS011;53739;44.224;22.528;2022-11-23T06:10:49;37.97;;;23.52;;
66830;SDS011;53739;44.224;22.528;2022-11-23T06:13:15;47.65;;;28.35;;
66830;SDS011;53739;44.224;22.528;2022-11-23T06:15:41;65.55;;;35.47;;
66830;SDS011;53739;44.224;22.528;2022-11-23T06:18:07;58.72;;;32.17;;
66830;SDS011;53739;44.224;22.528;2022-11-23T06:20:42;43.67;;;24.42;;
66830;SDS011;53739;44.224;22.528;2022-11-23T06:23:07;42.40;;;23.23;;
66830;SDS011;53739;44.224;22.528;2022-11-23T06:31:24;87.35;;;48.53;;
66830;SDS011;53739;44.224;22.528;2022-11-23T06:37:14;48.67;;;29.25;;
66830;SDS011;53739;44.224;22.528;2022-11-23T06:39:43;41.67;;;25.52;;
66830;SDS011;53739;44.224;22.528;2022-11-23T06:42:08;50.67;;;32.20;;
66830;SDS011;53739;44.224;22.528;2022-11-23T06:44:37;45.72;;;28.55;;
66830;SDS011;53739;44.224;22.528;2022-11-23T06:47:05;47.40;;;28.50;;
66830;SDS011;53739;44.224;22.528;2022-11-23T06:49:34;32.75;;;20.85;;
66830;SDS011;53739;44.224;22.528;2022-11-23T06:56:03;25.95;;;16.58;;
66830;SDS011;53739;44.224;22.528;2022-11-23T07:01:36;26.90;;;20.13;;
66830;SDS011;53739;44.224;22.528;2022-11-23T07:04:01;25.48;;;16.98;;
66830;SDS011;53739;44.224;22.528;2022-11-23T07:06:30;28.65;;;17.00;;
66830;SDS011;53739;44.224;22.528;2022-11-23T07:09:03;24.58;;;14.85;;
66830;SDS011;53739;44.224;22.528;2022-11-23T07:11:53;30.55;;;19.75;;
66830;SDS011;53739;44.224;22.528;2022-11-23T07:14:19;28.35;;;18.50;;
66830;SDS011;53739;44.224;22.528;2022-11-23T07:16:45;29.70;;;20.73;;
66830;SDS011;53739;44.224;22.528;2022-11-23T07:19:10;44.67;;;27.73;;
66830;SDS011;53739;44.224;22.528;2022-11-23T07:21:55;138.63;;;78.35;;
66830;SDS011;53739;44.224;22.528;2022-11-23T07:24:20;63.20;;;40.22;;
66830;SDS011;53739;44.224;22.528;2022-11-23T07:26:46;67.65;;;39.08;;
66830;SDS011;53739;44.224;22.528;2022-11-23T07:29:12;63.33;;;39.08;;
66830;SDS011;53739;44.224;22.528;2022-11-23T07:31:38;58.35;;;35.97;;
66830;SDS011;53739;44.224;22.528;2022-11-23T07:34:04;63.85;;;38.72;;
66830;SDS011;53739;44.224;22.528;2022-11-23T07:36:30;69.68;;;45.83;;
66830;SDS011;53739;44.224;22.528;2022-11-23T07:38:56;75.68;;;50.15;;
66830;SDS011;53739;44.224;22.528;2022-11-23T07:41:21;63.38;;;42.22;;
66830;SDS011;53739;44.224;22.528;2022-11-23T07:43:47;54.75;;;38.17;;
66830;SDS011;53739;44.224;22.528;2022-11-23T07:46:15;54.70;;;40.88;;
66830;SDS011;53739;44.224;22.528;2022-11-23T07:48:47;57.45;;;41.33;;
66830;SDS011;53739;44.224;22.528;2022-11-23T07:51:13;50.28;;;36.90;;
66830;SDS011;53739;44.224;22.528;2022-11-23T07:53:47;53.72;;;34.15;;
66830;SDS011;53739;44.224;22.528;2022-11-23T07:56:22;50.67;;;35.47;;
66830;SDS011;53739;44.224;22.528;2022-11-23T07:58:48;55.67;;;38.67;;
66830;SDS011;53739;44.224;22.528;2022-11-23T08:01:16;59.80;;;41.30;;
66830;SDS011;53739;44.224;22.528;2022-11-23T08:03:48;61.03;;;42.90;;
66830;SDS011;53739;44.224;22.528;2022-11-23T08:06:16;58.67;;;40.47;;
66830;SDS011;53739;44.224;22.528;2022-11-23T08:08:45;53.33;;;35.88;;
66830;SDS011;53739;44.224;22.528;2022-11-23T08:11:15;63.88;;;39.78;;
66830;SDS011;53739;44.224;22.528;2022-11-23T08:13:46;66.88;;;45.70;;
66830;SDS011;53739;44.224;22.528;2022-11-23T08:16:17;64.00;;;43.00;;
66830;SDS011;53739;44.224;22.528;2022-11-23T08:18:47;62.83;;;44.45;;
66830;SDS011;53739;44.224;22.528;2022-11-23T08:21:18;54.30;;;38.20;;
66830;SDS011;53739;44.224;22.528;2022-11-23T08:23:44;59.55;;;39.58;;
66830;SDS011;53739;44.224;22.528;2022-11-23T08:26:15;62.30;;;44.17;;
66830;SDS011;53739;44.224;22.528;2022-11-23T08:28:46;36.15;;;24.42;;
66830;SDS011;53739;44.224;22.528;2022-11-23T08:31:16;46.67;;;30.30;;
66830;SDS011;53739;44.224;22.528;2022-11-23T08:33:52;35.72;;;24.30;;
66830;SDS011;53739;44.224;22.528;2022-11-23T08:39:14;36.85;;;26.13;;
66830;SDS011;53739;44.224;22.528;2022-11-23T08:41:48;59.50;;;41.10;;
66830;SDS011;53739;44.224;22.528;2022-11-23T08:44:19;56.22;;;36.78;;
66830;SDS011;53739;44.224;22.528;2022-11-23T08:46:48;42.63;;;30.20;;
66830;SDS011;53739;44.224;22.528;2022-11-23T08:49:14;41.80;;;29.48;;
66830;SDS011;53739;44.224;22.528;2022-11-23T08:51:40;47.33;;;31.27;;
66830;SDS011;53739;44.224;22.528;2022-11-23T08:54:06;49.58;;;30.98;;
66830;SDS011;53739;44.224;22.528;2022-11-23T08:56:32;67.55;;;44.05;;
66830;SDS011;53739;44.224;22.528;2022-11-23T08:59:00;65.38;;;38.55;;
66830;SDS011;53739;44.224;22.528;2022-11-23T09:01:26;51.55;;;34.72;;
66830;SDS011;53739;44.224;22.528;2022-11-23T09:03:51;46.85;;;31.17;;
66830;SDS011;53739;44.224;22.528;2022-11-23T09:06:19;41.55;;;27.83;;
66830;SDS011;53739;44.224;22.528;2022-11-23T09:08:45;41.83;;;29.27;;
66830;SDS011;53739;44.224;22.528;2022-11-23T09:11:11;50.65;;;34.58;;
66830;SDS011;53739;44.224;22.528;2022-11-23T09:13:38;49.25;;;34.08;;
66830;SDS011;53739;44.224;22.528;2022-11-23T09:16:05;40.10;;;26.48;;
66830;SDS011;53739;44.224;22.528;2022-11-23T09:18:31;31.77;;;22.27;;
66830;SDS011;53739;44.224;22.528;2022-11-23T09:21:00;34.75;;;25.17;;
66830;SDS011;53739;44.224;22.528;2022-11-23T09:23:38;56.55;;;37.97;;
66830;SDS011;53739;44.224;22.528;2022-11-23T09:32:27;47.90;;;32.17;;
66830;SDS011;53739;44.224;22.528;2022-11-23T09:34:54;48.15;;;35.60;;
66830;SDS011;53739;44.224;22.528;2022-11-23T09:37:41;59.83;;;42.35;;
66830;SDS011;53739;44.224;22.528;2022-11-23T09:43:49;71.93;;;52.53;;
66830;SDS011;53739;44.224;22.528;2022-11-23T09:46:32;87.78;;;53.03;;
66830;SDS011;53739;44.224;22.528;2022-11-23T09:49:07;66.55;;;46.65;;
66830;SDS011;53739;44.224;22.528;2022-11-23T09:51:44;52.95;;;34.80;;
66830;SDS011;53739;44.224;22.528;2022-11-23T09:54:22;48.28;;;30.80;;
66830;SDS011;53739;44.224;22.528;2022-11-23T09:57:04;45.45;;;31.38;;
66830;SDS011;53739;44.224;22.528;2022-11-23T09:59:39;38.92;;;27.42;;
66830;SDS011;53739;44.224;22.528;2022-11-23T11:12:00;37.85;;;23.45;;
66830;SDS011;53739;44.224;22.528;2022-11-23T12:25:47;43.10;;;26.30;;
66830;SDS011;53739;44.224;22.528;2022-11-23T12:39:18;42.25;;;25.17;;
66830;SDS011;53739;44.224;22.528;2022-11-23T12:47:43;59.30;;;35.13;;
66830;SDS011;53739;44.224;22.528;2022-11-23T12:57:17;170.93;;;103.82;;
66830;SDS011;53739;44.224;22.528;2022-11-23T12:59:52;126.55;;;75.75;;
66830;SDS011;53739;44.224;22.528;2022-11-23T13:18:24;41.67;;;26.35;;
66830;SDS011;53739;44.224;22.528;2022-11-23T13:21:21;43.88;;;28.85;;
66830;SDS011;53739;44.224;22.528;2022-11-23T13:23:55;46.35;;;29.85;;
66830;SDS011;53739;44.224;22.528;2022-11-23T13:26:22;66.13;;;42.53;;
66830;SDS011;53739;44.224;22.528;2022-11-23T13:28:50;141.93;;;87.90;;
66830;SDS011;53739;44.224;22.528;2022-11-23T13:31:24;156.25;;;108.60;;
66830;SDS011;53739;44.224;22.528;2022-11-23T13:33:59;77.82;;;53.05;;
66830;SDS011;53739;44.224;22.528;2022-11-23T13:36:58;84.50;;;59.25;;
66830;SDS011;53739;44.224;22.528;2022-11-23T13:42:11;178.07;;;117.60;;
66830;SDS011;53739;44.224;22.528;2022-11-23T13:44:37;75.35;;;49.95;;
66830;SDS011;53739;44.224;22.528;2022-11-23T13:49:42;109.10;;;69.28;;
66830;SDS011;53739;44.224;22.528;2022-11-23T13:57:38;96.50;;;60.65;;
66830;SDS011;53739;44.224;22.528;2022-11-23T14:15:11;95.75;;;63.65;;
66830;SDS011;53739;44.224;22.528;2022-11-23T14:17:49;473.48;;;278.00;;
66830;SDS011;53739;44.224;22.528;2022-11-23T14:32:24;95.78;;;62.17;;
66830;SDS011;53739;44.224;22.528;2022-11-23T14:43:50;134.27;;;87.22;;
66830;SDS011;53739;44.224;22.528;2022-11-23T14:46:17;143.65;;;89.88;;
66830;SDS011;53739;44.224;22.528;2022-11-23T14:48:47;143.20;;;92.25;;
66830;SDS011;53739;44.224;22.528;2022-11-23T14:51:14;114.25;;;75.88;;
66830;SDS011;53739;44.224;22.528;2022-11-23T14:53:51;120.65;;;78.10;;
66830;SDS011;53739;44.224;22.528;2022-11-23T14:56:36;112.72;;;71.10;;
66830;SDS011;53739;44.224;22.528;2022-11-23T15:04:24;130.50;;;90.25;;
66830;SDS011;53739;44.224;22.528;2022-11-23T15:06:58;140.88;;;84.53;;
66830;SDS011;53739;44.224;22.528;2022-11-23T15:09:35;178.95;;;110.93;;
66830;SDS011;53739;44.224;22.528;2022-11-23T15:12:22;191.57;;;123.25;;
66830;SDS011;53739;44.224;22.528;2022-11-23T15:14:50;207.52;;;142.77;;
66830;SDS011;53739;44.224;22.528;2022-11-23T15:17:18;186.75;;;131.63;;
66830;SDS011;53739;44.224;22.528;2022-11-23T15:19:56;155.80;;;116.80;;
66830;SDS011;53739;44.224;22.528;2022-11-23T15:22:23;160.02;;;100.28;;
66830;SDS011;53739;44.224;22.528;2022-11-23T15:25:04;148.85;;;96.43;;
66830;SDS011;53739;44.224;22.528;2022-11-23T15:27:32;121.70;;;77.53;;
66830;SDS011;53739;44.224;22.528;2022-11-23T15:29:58;155.95;;;100.50;;
66830;SDS011;53739;44.224;22.528;2022-11-23T15:32:28;124.55;;;81.95;;
66830;SDS011;53739;44.224;22.528;2022-11-23T15:34:55;103.72;;;63.75;;
66830;SDS011;53739;44.224;22.528;2022-11-23T15:37:30;108.82;;;65.80;;
66830;SDS011;53739;44.224;22.528;2022-11-23T15:40:00;117.53;;;71.38;;
66830;SDS011;53739;44.224;22.528;2022-11-23T15:42:30;137.25;;;89.32;;
66830;SDS011;53739;44.224;22.528;2022-11-23T15:44:56;145.20;;;92.57;;
66830;SDS011;53739;44.224;22.528;2022-11-23T15:47:23;162.80;;;113.45;;
66830;SDS011;53739;44.224;22.528;2022-11-23T15:50:07;152.53;;;97.13;;
66830;SDS011;53739;44.224;22.528;2022-11-23T15:52:34;164.48;;;108.20;;
66830;SDS011;53739;44.224;22.528;2022-11-23T15:58:30;88.95;;;57.42;;
66830;SDS011;53739;44.224;22.528;2022-11-23T16:01:04;82.13;;;48.08;;
66830;SDS011;53739;44.224;22.528;2022-11-23T16:03:54;67.07;;;45.38;;
66830;SDS011;53739;44.224;22.528;2022-11-23T16:06:46;113.90;;;78.57;;
66830;SDS011;53739;44.224;22.528;2022-11-23T16:09:34;158.48;;;103.25;;
66830;SDS011;53739;44.224;22.528;2022-11-23T16:35:48;218.27;;;145.65;;
66830;SDS011;53739;44.224;22.528;2022-11-23T16:42:01;169.75;;;109.95;;
66830;SDS011;53739;44.224;22.528;2022-11-23T16:44:42;207.80;;;138.02;;
66830;SDS011;53739;44.224;22.528;2022-11-23T16:47:57;218.18;;;146.60;;
66830;SDS011;53739;44.224;22.528;2022-11-23T16:50:45;183.23;;;121.38;;
66830;SDS011;53739;44.224;22.528;2022-11-23T16:53:31;316.40;;;222.35;;
66830;SDS011;53739;44.224;22.528;2022-11-23T16:55:59;180.70;;;120.88;;
66830;SDS011;53739;44.224;22.528;2022-11-23T16:58:29;175.57;;;119.53;;
66830;SDS011;53739;44.224;22.528;2022-11-23T17:08:01;153.52;;;109.93;;
66830;SDS011;53739;44.224;22.528;2022-11-23T17:41:08;157.40;;;97.53;;
66830;SDS011;53739;44.224;22.528;2022-11-23T17:43:38;173.57;;;109.30;;
66830;SDS011;53739;44.224;22.528;2022-11-23T17:46:21;132.65;;;81.05;;
66830;SDS011;53739;44.224;22.528;2022-11-23T17:48:54;166.95;;;108.93;;
66830;SDS011;53739;44.224;22.528;2022-11-23T17:51:24;174.70;;;125.18;;
66830;SDS011;53739;44.224;22.528;2022-11-23T17:53:52;90.95;;;60.17;;
66830;SDS011;53739;44.224;22.528;2022-11-23T18:02:13;106.30;;;56.70;;
66830;SDS011;53739;44.224;22.528;2022-11-23T18:08:31;118.93;;;73.97;;
66830;SDS011;53739;44.224;22.528;2022-11-23T18:10:57;110.82;;;69.22;;
66830;SDS011;53739;44.224;22.528;2022-11-23T18:18:55;67.20;;;47.90;;
66830;SDS011;53739;44.224;22.528;2022-11-23T18:21:30;82.65;;;55.13;;
66830;SDS011;53739;44.224;22.528;2022-11-23T18:28:05;121.90;;;74.75;;
66830;SDS011;53739;44.224;22.528;2022-11-23T19:04:36;92.65;;;64.45;;
66830;SDS011;53739;44.224;22.528;2022-11-23T19:07:07;93.80;;;68.03;;
66830;SDS011;53739;44.224;22.528;2022-11-23T19:16:49;202.80;;;141.00;;
66830;SDS011;53739;44.224;22.528;2022-11-23T19:26:18;131.02;;;75.22;;
66830;SDS011;53739;44.224;22.528;2022-11-23T19:28:46;127.28;;;77.88;;
66830;SDS011;53739;44.224;22.528;2022-11-23T19:38:59;138.80;;;93.13;;
66830;SDS011;53739;44.224;22.528;2022-11-23T19:48:23;119.40;;;87.82;;
66830;SDS011;53739;44.224;22.528;2022-11-23T19:51:21;107.13;;;87.00;;
66830;SDS011;53739;44.224;22.528;2022-11-23T19:54:29;74.45;;;55.30;;
66830;SDS011;53739;44.224;22.528;2022-11-23T20:04:41;86.55;;;59.67;;
66830;SDS011;53739;44.224;22.528;2022-11-23T20:07:19;90.13;;;57.50;;
66830;SDS011;53739;44.224;22.528;2022-11-23T20:09:51;134.18;;;99.57;;
66830;SDS011;53739;44.224;22.528;2022-11-23T20:12:34;112.25;;;84.28;;
66830;SDS011;53739;44.224;22.528;2022-11-23T20:15:25;66.60;;;48.08;;
66830;SDS011;53739;44.224;22.528;2022-11-23T20:18:13;78.57;;;55.28;;
66830;SDS011;53739;44.224;22.528;2022-11-23T20:21:03;61.25;;;41.17;;
66830;SDS011;53739;44.224;22.528;2022-11-23T20:27:01;70.07;;;46.13;;
66830;SDS011;53739;44.224;22.528;2022-11-23T20:49:52;92.60;;;58.05;;
66830;SDS011;53739;44.224;22.528;2022-11-23T20:59:05;74.05;;;46.75;;
66830;SDS011;53739;44.224;22.528;2022-11-23T21:01:40;104.20;;;64.82;;
66830;SDS011;53739;44.224;22.528;2022-11-23T21:11:20;90.75;;;57.22;;
66830;SDS011;53739;44.224;22.528;2022-11-23T21:14:15;101.90;;;64.28;;
66830;SDS011;53739;44.224;22.528;2022-11-23T21:16:43;84.85;;;54.42;;
66830;SDS011;53739;44.224;22.528;2022-11-23T21:19:19;92.10;;;59.25;;
